Time;durP1;ratioP1;P1;durP2;ratioP2;P2;SDS_P1;SDS_P2;PMS_P1;PMS_P2;Temp;Humidity;BMP_temperature;BMP_pressure;BME280_temperature;BME280_humidity;BME280_pressure;Samples;Min_cycle;Max_cycle;Signal;HPM_P1;HPM_P2
2021/12/13 00:00:00;;;;;;;9.05;3.72;;;;;;;;;;4905661;28;20059;-69
2021/12/13 00:02:52;;;;;;;9.18;3.75;;;;;;;;;;4983035;28;20065;-69
2021/12/13 00:05:33;;;;;;;7.80;3.97;;;;;;;;;;4990415;28;20046;-70
2021/12/13 00:08:11;;;;;;;9.02;3.85;;;;;;;;;;4974668;28;20089;-69
2021/12/13 00:10:52;;;;;;;9.23;3.97;;;;;;;;;;4989643;28;20051;-68
2021/12/13 00:13:34;;;;;;;8.88;3.75;;;;;;;;;;4966776;28;20047;-69
2021/12/13 00:16:12;;;;;;;10.13;4.20;;;;;;;;;;4995677;28;20053;-70
2021/12/13 00:18:50;;;;;;;8.18;3.80;;;;;;;;;;5009657;28;20054;-69
2021/12/13 00:21:43;;;;;;;6.28;3.53;;;;;;;;;;4993990;28;20129;-69
2021/12/13 00:24:24;;;;;;;7.70;3.50;;;;;;;;;;4957511;28;20411;-69
2021/12/13 00:27:17;;;;;;;9.60;3.80;;;;;;;;;;4953011;28;20052;-69
2021/12/13 00:29:59;;;;;;;10.15;5.30;;;;;;;;;;4932112;29;20058;-72
2021/12/13 00:33:08;;;;;;;13.70;5.15;;;;;;;;;;4932083;29;20436;-68
2021/12/13 00:35:51;;;;;;;10.60;5.03;;;;;;;;;;4931523;29;20423;-69
2021/12/13 00:38:24;;;;;;;10.70;4.95;;;;;;;;;;4932361;29;20060;-70
2021/12/13 00:41:12;;;;;;;10.25;5.07;;;;;;;;;;4900392;29;20059;-69
2021/12/13 00:43:59;;;;;;;11.95;5.20;;;;;;;;;;4932382;29;20067;-69
2021/12/13 00:46:31;;;;;;;10.05;5.10;;;;;;;;;;4932068;29;20558;-71
2021/12/13 00:49:08;;;;;;;10.20;4.70;;;;;;;;;;4951019;28;20420;-68
2021/12/13 00:51:47;;;;;;;10.95;4.60;;;;;;;;;;4929762;28;20158;-69
2021/12/13 00:54:39;;;;;;;13.15;5.05;;;;;;;;;;4936509;28;20058;-71
2021/12/13 00:57:21;;;;;;;7.88;4.43;;;;;;;;;;4931854;29;20110;-70
2021/12/13 01:00:04;;;;;;;11.63;5.30;;;;;;;;;;4912492;29;20056;-69
2021/12/13 01:02:50;;;;;;;12.35;5.13;;;;;;;;;;4927864;29;20058;-70
2021/12/13 01:05:38;;;;;;;9.43;4.55;;;;;;;;;;4896641;29;20056;-69
2021/12/13 01:08:46;;;;;;;8.10;4.90;;;;;;;;;;4923624;29;20524;-71
2021/12/13 01:11:33;;;;;;;12.30;5.15;;;;;;;;;;4912506;29;20477;-69
2021/12/13 01:14:06;;;;;;;8.98;5.72;;;;;;;;;;4890439;29;20480;-69
2021/12/13 01:20:43;;;;;;;9.38;5.18;;;;;;;;;;4838057;29;20050;-69
2021/12/13 01:23:27;;;;;;;10.02;5.07;;;;;;;;;;4822186;29;20069;-70
2021/12/13 01:26:13;;;;;;;11.15;4.88;;;;;;;;;;4826911;29;20067;-69
2021/12/13 01:28:57;;;;;;;13.90;5.40;;;;;;;;;;4836535;29;20058;-70
2021/12/13 01:31:44;;;;;;;14.27;5.80;;;;;;;;;;4822805;29;20050;-69
2021/12/13 01:34:26;;;;;;;10.77;5.03;;;;;;;;;;4841592;29;20065;-69
2021/12/13 01:37:15;;;;;;;15.57;5.93;;;;;;;;;;4845505;29;20061;-69
2021/12/13 01:39:52;;;;;;;12.18;6.35;;;;;;;;;;4820543;29;20054;-70
2021/12/13 01:42:26;;;;;;;12.00;6.35;;;;;;;;;;4792762;29;20056;-69
2021/12/13 01:45:01;;;;;;;18.50;5.97;;;;;;;;;;4751194;30;20064;-69
2021/12/13 01:47:39;;;;;;;10.85;5.63;;;;;;;;;;4754730;30;20063;-69
2021/12/13 01:50:41;;;;;;;15.38;5.65;;;;;;;;;;4768511;30;20055;-69
2021/12/13 01:53:11;;;;;;;12.10;5.63;;;;;;;;;;4770753;29;20064;-69
2021/12/13 01:55:46;;;;;;;15.60;5.80;;;;;;;;;;4805032;29;20563;-69
2021/12/13 02:01:10;;;;;;;14.90;6.63;;;;;;;;;;4822657;29;20451;-69
2021/12/13 02:04:04;;;;;;;15.77;6.25;;;;;;;;;;4831547;29;20058;-70
2021/12/13 02:06:51;;;;;;;10.85;5.43;;;;;;;;;;4833478;29;20074;-71
2021/12/13 02:09:27;;;;;;;13.90;6.28;;;;;;;;;;4851470;29;20061;-69
2021/12/13 02:12:01;;;;;;;13.00;6.55;;;;;;;;;;4859468;29;20450;-69
2021/12/13 02:14:34;;;;;;;12.32;6.10;;;;;;;;;;4849424;29;20058;-69
2021/12/13 02:17:12;;;;;;;12.65;5.82;;;;;;;;;;4872431;29;20060;-71
2021/12/13 02:19:42;;;;;;;12.90;5.85;;;;;;;;;;4910055;29;20059;-70
2021/12/13 02:22:32;;;;;;;12.23;5.47;;;;;;;;;;4934243;29;20201;-69
2021/12/13 02:25:24;;;;;;;16.30;5.70;;;;;;;;;;4915346;29;20059;-70
2021/12/13 02:28:01;;;;;;;13.23;6.28;;;;;;;;;;4925612;29;20096;-70
2021/12/13 02:30:44;;;;;;;10.23;5.85;;;;;;;;;;4914884;29;20052;-69
2021/12/13 02:33:24;;;;;;;10.68;5.93;;;;;;;;;;4914913;29;20052;-73
2021/12/13 02:36:19;;;;;;;18.58;5.80;;;;;;;;;;4916873;28;20067;-72
2021/12/13 02:38:53;;;;;;;11.40;6.00;;;;;;;;;;4926000;29;20054;-69
2021/12/13 02:41:27;;;;;;;13.25;5.43;;;;;;;;;;4924020;29;20059;-69
2021/12/13 02:44:06;;;;;;;13.65;5.47;;;;;;;;;;4914610;29;20052;-69
2021/12/13 02:46:39;;;;;;;12.70;5.20;;;;;;;;;;4914976;29;20436;-70
2021/12/13 02:49:13;;;;;;;12.25;5.50;;;;;;;;;;4914964;29;20390;-69
2021/12/13 02:51:51;;;;;;;12.00;5.63;;;;;;;;;;4921023;29;20055;-69
2021/12/13 02:54:21;;;;;;;17.90;6.07;;;;;;;;;;4917790;29;20066;-71
2021/12/13 02:56:56;;;;;;;10.95;5.60;;;;;;;;;;4964065;28;20054;-69
2021/12/13 02:59:33;;;;;;;16.83;5.80;;;;;;;;;;4972277;28;20059;-69
2021/12/13 03:02:24;;;;;;;12.75;5.90;;;;;;;;;;4924543;28;20047;-70
2021/12/13 03:04:59;;;;;;;12.38;5.43;;;;;;;;;;4972263;28;20050;-69
2021/12/13 03:07:41;;;;;;;13.38;5.70;;;;;;;;;;4960884;28;20057;-69
2021/12/13 03:10:17;;;;;;;10.85;5.53;;;;;;;;;;4952570;28;20055;-69
2021/12/13 03:12:48;;;;;;;15.77;7.05;;;;;;;;;;4952692;28;20055;-71
2021/12/13 03:15:22;;;;;;;12.95;6.10;;;;;;;;;;4937530;28;20059;-70
2021/12/13 03:18:08;;;;;;;17.10;6.45;;;;;;;;;;4972616;28;20050;-71
2021/12/13 03:20:56;;;;;;;12.55;6.00;;;;;;;;;;4992990;28;20061;-73
2021/12/13 03:23:28;;;;;;;16.63;5.72;;;;;;;;;;5011181;28;20069;-69
2021/12/13 03:26:26;;;;;;;17.80;6.05;;;;;;;;;;4978526;28;20057;-70
2021/12/13 03:29:06;;;;;;;13.57;6.05;;;;;;;;;;4994781;28;20387;-69
2021/12/13 03:31:51;;;;;;;15.63;6.60;;;;;;;;;;5010930;28;20433;-70
2021/12/13 03:34:26;;;;;;;;;;;;;;;;;;5011055;28;20058;-70
2021/12/13 03:37:14;;;;;;;12.85;5.68;;;;;;;;;;4990937;28;19922;-69
2021/12/13 03:39:50;;;;;;;12.30;5.68;;;;;;;;;;4958766;28;20061;-71
2021/12/13 03:42:38;;;;;;;13.45;6.20;;;;;;;;;;4975078;28;20050;-69
2021/12/13 03:45:24;;;;;;;10.50;6.05;;;;;;;;;;4957813;28;20550;-70
2021/12/13 03:47:57;;;;;;;10.20;5.93;;;;;;;;;;5011804;28;20053;-72
2021/12/13 03:50:34;;;;;;;11.80;6.57;;;;;;;;;;5030237;28;20440;-69
2021/12/13 03:53:15;;;;;;;16.90;6.13;;;;;;;;;;5029938;28;20419;-72
2021/12/13 03:55:49;;;;;;;12.65;6.35;;;;;;;;;;5030190;28;20064;-70
2021/12/13 03:58:22;;;;;;;19.63;6.60;;;;;;;;;;5029980;28;20143;-69
2021/12/13 04:01:08;;;;;;;20.88;6.35;;;;;;;;;;5038980;28;20053;-70
2021/12/13 04:03:39;;;;;;;12.73;7.38;;;;;;;;;;5013458;28;20512;-71
2021/12/13 04:06:15;;;;;;;17.55;5.93;;;;;;;;;;5029674;28;20057;-69
2021/12/13 04:08:52;;;;;;;14.20;6.95;;;;;;;;;;5029670;28;20509;-69
2021/12/13 04:11:24;;;;;;;22.38;6.25;;;;;;;;;;5013848;28;20555;-71
2021/12/13 04:14:06;;;;;;;17.80;6.28;;;;;;;;;;5014154;28;20053;-71
2021/12/13 04:16:50;;;;;;;16.05;6.38;;;;;;;;;;5012776;28;20053;-70
2021/12/13 04:19:23;;;;;;;15.50;6.22;;;;;;;;;;5013585;28;20050;-69
2021/12/13 04:21:59;;;;;;;18.40;7.03;;;;;;;;;;5029712;28;20057;-69
2021/12/13 04:24:39;;;;;;;12.88;7.07;;;;;;;;;;5009909;28;20045;-70
2021/12/13 04:27:22;;;;;;;13.52;6.22;;;;;;;;;;5009892;28;20058;-69
2021/12/13 04:29:58;;;;;;;11.05;6.15;;;;;;;;;;5009810;28;20050;-72
2021/12/13 04:32:35;;;;;;;11.70;6.15;;;;;;;;;;4989890;28;20054;-72
2021/12/13 04:35:10;;;;;;;12.65;6.43;;;;;;;;;;4970017;28;20055;-69
2021/12/13 04:37:46;;;;;;;16.55;6.43;;;;;;;;;;4970472;28;20050;-70
2021/12/13 04:40:23;;;;;;;17.15;6.15;;;;;;;;;;4970347;28;20059;-71
2021/12/13 04:43:06;;;;;;;15.25;5.85;;;;;;;;;;4970586;28;20054;-70
2021/12/13 04:45:41;;;;;;;16.15;6.50;;;;;;;;;;4970456;28;20070;-69
2021/12/13 04:48:18;;;;;;;10.45;5.72;;;;;;;;;;4951031;28;20082;-70
2021/12/13 04:50:57;;;;;;;14.85;6.55;;;;;;;;;;4947441;29;20058;-70
2021/12/13 04:53:42;;;;;;;9.48;5.80;;;;;;;;;;4935477;29;20055;-70
2021/12/13 04:56:20;;;;;;;12.50;6.03;;;;;;;;;;4932684;29;20051;-70
2021/12/13 04:58:55;;;;;;;14.35;6.05;;;;;;;;;;4935854;29;20071;-70
2021/12/13 05:01:26;;;;;;;11.15;5.80;;;;;;;;;;4932304;29;20501;-69
2021/12/13 05:04:01;;;;;;;12.10;6.60;;;;;;;;;;4916956;29;20793;-69
2021/12/13 05:06:35;;;;;;;18.45;6.65;;;;;;;;;;4863514;29;20379;-71
2021/12/13 05:09:09;;;;;;;15.13;6.00;;;;;;;;;;4880442;29;20081;-69
2021/12/13 05:11:53;;;;;;;13.30;5.85;;;;;;;;;;4914504;29;20064;-71
2021/12/13 05:14:48;;;;;;;11.68;5.93;;;;;;;;;;4916528;29;20048;-69
2021/12/13 05:17:23;;;;;;;12.85;6.25;;;;;;;;;;4932078;29;20108;-70
2021/12/13 05:20:10;;;;;;;16.10;6.15;;;;;;;;;;4866630;29;20052;-70
2021/12/13 05:22:53;;;;;;;14.38;5.80;;;;;;;;;;4897724;29;20056;-69
2021/12/13 05:25:50;;;;;;;14.60;5.70;;;;;;;;;;4884335;29;20045;-70
2021/12/13 05:28:39;;;;;;;15.73;6.00;;;;;;;;;;4887485;29;20059;-69
2021/12/13 05:31:21;;;;;;;16.95;5.80;;;;;;;;;;4897559;29;20509;-70
2021/12/13 05:34:00;;;;;;;12.50;5.78;;;;;;;;;;4906697;29;20060;-69
2021/12/13 05:36:33;;;;;;;13.57;5.97;;;;;;;;;;4916573;29;20056;-70
2021/12/13 05:39:15;;;;;;;13.30;5.85;;;;;;;;;;4862908;29;20509;-71
2021/12/13 05:42:00;;;;;;;15.20;6.85;;;;;;;;;;4878761;29;20057;-72
2021/12/13 05:44:33;;;;;;;14.75;6.53;;;;;;;;;;4878705;29;20057;-70
2021/12/13 05:47:16;;;;;;;14.68;5.78;;;;;;;;;;4879060;29;20409;-70
2021/12/13 05:49:46;;;;;;;12.75;6.13;;;;;;;;;;4896952;29;20053;-70
2021/12/13 05:52:20;;;;;;;11.88;6.18;;;;;;;;;;4908110;29;20425;-70
2021/12/13 05:54:58;;;;;;;10.05;5.55;;;;;;;;;;4915829;29;20048;-70
2021/12/13 05:57:34;;;;;;;14.38;5.88;;;;;;;;;;4924578;29;20079;-72
2021/12/13 06:00:11;;;;;;;12.30;5.68;;;;;;;;;;4934898;29;20066;-70
2021/12/13 06:03:17;;;;;;;14.10;6.20;;;;;;;;;;4960793;28;20070;-71
2021/12/13 06:05:52;;;;;;;11.35;5.95;;;;;;;;;;4953852;29;20055;-71
2021/12/13 06:08:29;;;;;;;12.93;5.68;;;;;;;;;;4952924;28;20062;-71
2021/12/13 06:11:12;;;;;;;13.30;5.93;;;;;;;;;;4953406;29;20526;-70
2021/12/13 06:13:48;;;;;;;14.50;6.32;;;;;;;;;;4906437;29;20058;-70
2021/12/13 06:16:24;;;;;;;13.95;6.03;;;;;;;;;;4927878;29;20185;-70
2021/12/13 06:19:03;;;;;;;12.88;5.93;;;;;;;;;;4896471;29;20525;-70
2021/12/13 06:22:00;;;;;;;14.30;5.95;;;;;;;;;;4896445;29;20056;-71
2021/12/13 06:24:32;;;;;;;14.30;5.55;;;;;;;;;;4896426;29;20057;-70
2021/12/13 06:27:10;;;;;;;16.65;6.13;;;;;;;;;;4908616;29;20076;-70
2021/12/13 06:29:52;;;;;;;12.50;6.05;;;;;;;;;;4850331;29;20723;-70
2021/12/13 06:32:36;;;;;;;11.68;5.82;;;;;;;;;;4896640;29;20061;-70
2021/12/13 06:35:30;;;;;;;16.85;7.25;;;;;;;;;;4896203;29;20425;-70
2021/12/13 06:38:19;;;;;;;10.63;6.13;;;;;;;;;;4858579;29;20060;-70
2021/12/13 06:41:01;;;;;;;14.48;6.18;;;;;;;;;;4859093;29;20069;-73
2021/12/13 06:43:50;;;;;;;13.75;6.38;;;;;;;;;;4878850;29;20060;-70
2021/12/13 06:46:23;;;;;;;16.65;6.50;;;;;;;;;;4908194;29;20060;-70
2021/12/13 06:49:10;;;;;;;16.52;6.68;;;;;;;;;;4914965;29;20064;-70
2021/12/13 06:51:41;;;;;;;13.20;6.55;;;;;;;;;;4915334;29;20429;-70
2021/12/13 06:54:35;;;;;;;12.30;6.68;;;;;;;;;;4930542;29;20060;-70
2021/12/13 06:57:14;;;;;;;9.90;7.07;;;;;;;;;;4944098;28;20440;-74
2021/12/13 06:59:52;;;;;;;10.68;6.20;;;;;;;;;;4906222;29;20061;-71
2021/12/13 07:02:46;;;;;;;16.85;6.55;;;;;;;;;;4957259;28;20502;-70
2021/12/13 07:05:22;;;;;;;13.93;6.53;;;;;;;;;;5001267;28;20088;-70
2021/12/13 07:08:03;;;;;;;19.58;6.80;;;;;;;;;;4991347;28;20058;-71
2021/12/13 07:10:38;;;;;;;11.30;6.10;;;;;;;;;;4991746;28;20058;-70
2021/12/13 07:13:37;;;;;;;13.25;6.35;;;;;;;;;;4991606;28;20054;-73
2021/12/13 07:16:22;;;;;;;13.27;5.85;;;;;;;;;;4950436;28;20550;-71
2021/12/13 07:19:18;;;;;;;16.42;6.18;;;;;;;;;;4972110;28;20058;-71
2021/12/13 07:21:58;;;;;;;11.43;5.68;;;;;;;;;;4952275;29;20054;-71
2021/12/13 07:24:34;;;;;;;16.17;7.20;;;;;;;;;;4917734;29;20078;-71
2021/12/13 07:27:08;;;;;;;18.08;6.38;;;;;;;;;;4933494;29;20059;-70
2021/12/13 07:29:55;;;;;;;15.32;6.93;;;;;;;;;;4918033;29;20056;-71
2021/12/13 07:32:36;;;;;;;13.90;7.07;;;;;;;;;;4933063;29;20170;-72
2021/12/13 07:35:17;;;;;;;11.73;7.03;;;;;;;;;;4932958;29;20401;-72
2021/12/13 07:37:53;;;;;;;10.75;6.30;;;;;;;;;;4933293;29;20051;-72
2021/12/13 07:40:29;;;;;;;16.02;6.82;;;;;;;;;;4932954;29;20064;-70
2021/12/13 07:43:21;;;;;;;11.55;6.50;;;;;;;;;;4933262;29;20055;-71
2021/12/13 07:45:58;;;;;;;13.32;6.72;;;;;;;;;;4933009;29;20071;-71
2021/12/13 07:48:50;;;;;;;14.00;7.32;;;;;;;;;;4932990;29;20060;-73
2021/12/13 07:51:27;;;;;;;16.33;8.30;;;;;;;;;;4933046;29;20412;-71
2021/12/13 07:53:57;;;;;;;14.30;7.40;;;;;;;;;;5002464;28;20068;-72
2021/12/13 07:56:33;;;;;;;12.43;7.07;;;;;;;;;;5030011;28;20057;-72
2021/12/13 07:59:15;;;;;;;15.32;7.60;;;;;;;;;;5029919;28;20060;-71
2021/12/13 08:01:49;;;;;;;16.13;8.10;;;;;;;;;;5045114;28;20059;-73
2021/12/13 08:04:23;;;;;;;20.33;8.38;;;;;;;;;;5072085;28;20067;-72
2021/12/13 08:07:00;;;;;;;14.20;7.05;;;;;;;;;;5072036;28;20033;-71
2021/12/13 08:09:31;;;;;;;15.75;7.10;;;;;;;;;;5072052;28;20036;-71
2021/12/13 08:12:15;;;;;;;12.77;6.97;;;;;;;;;;5029405;28;20493;-71
2021/12/13 08:14:48;;;;;;;17.23;7.22;;;;;;;;;;5029759;28;20057;-72
2021/12/13 08:17:25;;;;;;;20.60;7.82;;;;;;;;;;5029495;28;20438;-71
2021/12/13 08:20:08;;;;;;;18.90;8.10;;;;;;;;;;5030225;28;20049;-72
2021/12/13 08:22:47;;;;;;;16.15;8.07;;;;;;;;;;5029576;28;20045;-72
2021/12/13 08:25:25;;;;;;;14.35;7.70;;;;;;;;;;5029511;28;20045;-71
2021/12/13 08:27:59;;;;;;;14.15;7.88;;;;;;;;;;5029462;28;20449;-72
2021/12/13 08:31:14;;;;;;;15.27;7.15;;;;;;;;;;4970146;28;20074;-71
2021/12/13 08:34:33;;;;;;;14.52;7.05;;;;;;;;;;4912652;29;20059;-71
2021/12/13 08:37:16;;;;;;;14.60;7.30;;;;;;;;;;4948268;29;20055;-71
2021/12/13 08:39:52;;;;;;;17.40;8.57;;;;;;;;;;4951256;28;20059;-72
2021/12/13 08:42:26;;;;;;;17.08;8.23;;;;;;;;;;4951340;28;20054;-72
2021/12/13 08:45:22;;;;;;;17.70;7.93;;;;;;;;;;4931817;28;20066;-73
2021/12/13 08:48:06;;;;;;;15.93;7.35;;;;;;;;;;4917665;29;20144;-71
2021/12/13 08:50:50;;;;;;;15.82;7.35;;;;;;;;;;4946681;28;20051;-72
2021/12/13 08:53:26;;;;;;;17.50;9.88;;;;;;;;;;4951423;28;20400;-72
2021/12/13 08:56:05;;;;;;;18.17;9.32;;;;;;;;;;4931528;28;20408;-72
2021/12/13 08:58:38;;;;;;;17.90;7.40;;;;;;;;;;4925639;29;20056;-72
2021/12/13 09:01:10;;;;;;;;;;;;;;;;;;4897380;29;20064;-71
2021/12/13 09:03:52;;;;;;;13.98;6.70;;;;;;;;;;4912959;29;20406;-71
2021/12/13 09:06:34;;;;;;;15.27;7.07;;;;;;;;;;4896890;29;20071;-71
2021/12/13 09:09:15;;;;;;;16.13;6.35;;;;;;;;;;4965655;28;20062;-71
2021/12/13 09:11:51;;;;;;;12.20;5.60;;;;;;;;;;4938421;28;20054;-72
2021/12/13 09:14:36;;;;;;;15.70;6.15;;;;;;;;;;4938174;28;20065;-73
2021/12/13 09:17:21;;;;;;;12.32;6.70;;;;;;;;;;4984015;28;20062;-71
2021/12/13 09:20:20;;;;;;;15.48;7.07;;;;;;;;;;5009082;28;20058;-71
2021/12/13 09:22:53;;;;;;;18.23;7.90;;;;;;;;;;4983368;28;20054;-72
2021/12/13 09:25:30;;;;;;;;;;;;;;;;;;5010407;28;20062;-72
2021/12/13 09:28:03;;;;;;;;;;;;;;;;;;5017373;28;19925;-72
2021/12/13 09:31:04;;;;;;;18.50;10.10;;;;;;;;;;5029014;28;19928;-73
2021/12/13 09:33:41;;;;;;;19.92;9.73;;;;;;;;;;4951137;28;20051;-71
2021/12/13 09:36:17;;;;;;;23.75;9.45;;;;;;;;;;4940471;29;20567;-72
2021/12/13 09:38:58;;;;;;;18.52;9.10;;;;;;;;;;4903441;29;20062;-71
2021/12/13 09:42:12;;;;;;;15.68;7.95;;;;;;;;;;4950363;29;20062;-71
2021/12/13 09:44:48;;;;;;;16.00;7.45;;;;;;;;;;4934421;29;20063;-72
2021/12/13 09:47:33;;;;;;;17.98;7.93;;;;;;;;;;4919500;29;20058;-71
2021/12/13 09:50:17;;;;;;;17.10;7.13;;;;;;;;;;4934756;29;20090;-74
2021/12/13 09:53:01;;;;;;;15.57;7.07;;;;;;;;;;4935156;29;20064;-71
2021/12/13 09:55:41;;;;;;;14.00;7.65;;;;;;;;;;4915764;29;20059;-72
2021/12/13 09:58:22;;;;;;;14.27;6.53;;;;;;;;;;4915923;29;20056;-71
2021/12/13 10:01:05;;;;;;;15.50;6.45;;;;;;;;;;4916073;29;20206;-71
2021/12/13 10:03:54;;;;;;;15.65;7.50;;;;;;;;;;4916059;29;20402;-71
2021/12/13 10:06:48;;;;;;;16.55;6.80;;;;;;;;;;4915677;29;20060;-72
2021/12/13 10:09:25;;;;;;;17.88;7.70;;;;;;;;;;4878315;29;20057;-70
2021/12/13 10:12:09;;;;;;;17.00;6.35;;;;;;;;;;4859200;29;20057;-69
2021/12/13 10:14:47;;;;;;;13.15;6.00;;;;;;;;;;4822421;29;20069;-71
2021/12/13 10:17:20;;;;;;;11.80;5.30;;;;;;;;;;4822611;29;20066;-68
2021/12/13 10:19:55;;;;;;;14.48;4.70;;;;;;;;;;4822338;29;20062;-67
2021/12/13 10:22:29;;;;;;;11.00;5.18;;;;;;;;;;4837765;29;20525;-67
2021/12/13 10:25:26;;;;;;;13.45;5.40;;;;;;;;;;4893401;29;20508;-67
2021/12/13 10:27:57;;;;;;;10.23;5.15;;;;;;;;;;4877809;29;20068;-66
2021/12/13 10:30:35;;;;;;;10.35;5.53;;;;;;;;;;4892916;29;20508;-69
2021/12/13 10:33:07;;;;;;;8.23;5.15;;;;;;;;;;4886156;29;20067;-67
2021/12/13 10:35:42;;;;;;;11.90;5.70;;;;;;;;;;4896134;29;20060;-68
2021/12/13 10:38:23;;;;;;;10.68;5.93;;;;;;;;;;4858726;29;20058;-68
2021/12/13 10:40:59;;;;;;;14.52;6.15;;;;;;;;;;4859394;29;20053;-68
2021/12/13 10:43:43;;;;;;;11.85;5.65;;;;;;;;;;4858886;29;20058;-69
2021/12/13 10:46:20;;;;;;;14.60;5.75;;;;;;;;;;4860149;29;20064;-70
2021/12/13 10:48:57;;;;;;;12.77;5.53;;;;;;;;;;4880703;29;20067;-68
2021/12/13 10:51:35;;;;;;;11.85;5.72;;;;;;;;;;4921516;29;20055;-68
2021/12/13 10:54:14;;;;;;;10.50;5.57;;;;;;;;;;4936974;29;20059;-68
2021/12/13 10:57:10;;;;;;;11.93;6.45;;;;;;;;;;4938765;29;20085;-69
2021/12/13 10:59:45;;;;;;;10.43;4.65;;;;;;;;;;4947484;29;20051;-68
2021/12/13 11:02:31;;;;;;;17.95;4.55;;;;;;;;;;4917915;29;20683;-68
2021/12/13 11:05:15;;;;;;;16.70;4.75;;;;;;;;;;4950285;28;20059;-70
2021/12/13 11:07:47;;;;;;;8.60;4.13;;;;;;;;;;4924789;28;20054;-76
2021/12/13 11:10:26;;;;;;;13.48;3.95;;;;;;;;;;4965904;28;20066;-69
2021/12/13 11:13:23;;;;;;;13.82;3.95;;;;;;;;;;4933177;28;20548;-67
2021/12/13 11:16:02;;;;;;;8.93;3.55;;;;;;;;;;4912728;29;20048;-68
2021/12/13 11:18:41;;;;;;;7.32;3.15;;;;;;;;;;4895791;29;20061;-67
2021/12/13 11:21:18;;;;;;;7.93;3.35;;;;;;;;;;4910587;29;20063;-68
2021/12/13 11:23:49;;;;;;;7.60;3.10;;;;;;;;;;4879573;29;20061;-68
2021/12/13 11:26:24;;;;;;;8.77;4.00;;;;;;;;;;4930453;28;20062;-68
2021/12/13 11:28:54;;;;;;;10.48;4.00;;;;;;;;;;4912749;29;20044;-66
2021/12/13 11:31:30;;;;;;;10.00;3.22;;;;;;;;;;4933183;29;20066;-67
2021/12/13 11:34:02;;;;;;;15.82;3.50;;;;;;;;;;4933273;29;20060;-67
2021/12/13 11:37:06;;;;;;;8.10;3.20;;;;;;;;;;4933167;29;20529;-67
2021/12/13 11:40:09;;;;;;;8.32;2.85;;;;;;;;;;4933241;29;20055;-69
2021/12/13 11:43:04;;;;;;;9.75;2.97;;;;;;;;;;4932906;29;20063;-66
2021/12/13 11:45:41;;;;;;;7.47;2.65;;;;;;;;;;4951992;28;20428;-67
2021/12/13 11:48:33;;;;;;;8.90;3.17;;;;;;;;;;4963697;28;20059;-67
2021/12/13 11:51:36;;;;;;;8.48;3.22;;;;;;;;;;4971212;28;20066;-68
2021/12/13 11:54:30;;;;;;;8.82;3.83;;;;;;;;;;4923392;28;20120;-66
2021/12/13 11:57:32;;;;;;;9.68;3.97;;;;;;;;;;4971281;28;20539;-66
2021/12/13 12:00:09;;;;;;;12.25;4.10;;;;;;;;;;4894860;29;20067;-70
2021/12/13 12:03:16;;;;;;;9.30;4.45;;;;;;;;;;4913508;29;20064;-67
2021/12/13 12:06:20;;;;;;;7.95;3.90;;;;;;;;;;4913259;29;20066;-67
2021/12/13 12:09:02;;;;;;;9.65;4.82;;;;;;;;;;4913681;29;20633;-66
2021/12/13 12:11:59;;;;;;;9.23;3.90;;;;;;;;;;4913493;29;20052;-66
2021/12/13 12:14:30;;;;;;;9.32;4.03;;;;;;;;;;4924611;29;20071;-67
2021/12/13 12:17:02;;;;;;;11.68;5.50;;;;;;;;;;4916206;29;20062;-66
2021/12/13 12:19:36;;;;;;;8.20;4.10;;;;;;;;;;4932075;29;20047;-67
2021/12/13 12:22:08;;;;;;;7.72;2.70;;;;;;;;;;4932135;29;20066;-66
2021/12/13 12:24:41;;;;;;;10.27;4.47;;;;;;;;;;4932389;29;20063;-66
2021/12/13 12:27:27;;;;;;;6.38;3.75;;;;;;;;;;4913468;29;20055;-67
2021/12/13 12:30:09;;;;;;;5.85;3.15;;;;;;;;;;4893977;29;20052;-66
2021/12/13 12:32:44;;;;;;;7.78;3.50;;;;;;;;;;4894012;29;20052;-69
2021/12/13 12:35:27;;;;;;;7.72;2.30;;;;;;;;;;4890467;29;20056;-67
2021/12/13 12:38:18;;;;;;;6.32;2.25;;;;;;;;;;4875826;29;20056;-66
2021/12/13 12:41:11;;;;;;;4.30;2.22;;;;;;;;;;4875806;29;20504;-66
2021/12/13 12:43:51;;;;;;;6.05;2.70;;;;;;;;;;4913240;29;20539;-66
2021/12/13 12:46:23;;;;;;;9.02;2.70;;;;;;;;;;4913352;29;20067;-66
2021/12/13 12:48:57;;;;;;;6.18;2.75;;;;;;;;;;4875197;29;20064;-69
2021/12/13 12:51:31;;;;;;;8.77;2.67;;;;;;;;;;4890458;29;20061;-70
2021/12/13 12:54:15;;;;;;;6.75;2.35;;;;;;;;;;4886527;29;20069;-71
2021/12/13 12:56:51;;;;;;;6.82;2.53;;;;;;;;;;4895786;29;20063;-67
2021/12/13 12:59:26;;;;;;;7.30;2.22;;;;;;;;;;4910254;29;20064;-69
2021/12/13 13:02:08;;;;;;;5.53;2.47;;;;;;;;;;4865200;29;20066;-69
2021/12/13 13:04:43;;;;;;;7.70;2.70;;;;;;;;;;4888811;29;20059;-72
2021/12/13 13:07:23;;;;;;;9.20;3.70;;;;;;;;;;4841671;29;20525;-69
2021/12/13 13:09:55;;;;;;;9.82;2.63;;;;;;;;;;4873114;29;20522;-66
2021/12/13 13:12:29;;;;;;;7.78;4.45;;;;;;;;;;4864175;29;20509;-69
2021/12/13 13:15:08;;;;;;;6.55;3.25;;;;;;;;;;4860302;29;20065;-67
2021/12/13 13:17:44;;;;;;;8.32;3.50;;;;;;;;;;4875486;29;20069;-66
2021/12/13 13:20:46;;;;;;;10.65;3.45;;;;;;;;;;4882117;29;20080;-69
2021/12/13 13:23:19;;;;;;;5.68;2.72;;;;;;;;;;4877620;29;20575;-69
2021/12/13 13:25:56;;;;;;;9.05;3.47;;;;;;;;;;4859169;29;20100;-67
2021/12/13 13:28:33;;;;;;;10.23;3.33;;;;;;;;;;4858219;29;20064;-66
2021/12/13 13:31:14;;;;;;;12.35;3.70;;;;;;;;;;4859502;29;20061;-67
2021/12/13 13:33:48;;;;;;;6.18;3.22;;;;;;;;;;4869530;29;20080;-68
2021/12/13 13:36:59;;;;;;;8.38;3.75;;;;;;;;;;4840250;29;20570;-65
2021/12/13 13:39:41;;;;;;;8.68;3.50;;;;;;;;;;4840522;29;20155;-64
2021/12/13 13:42:29;;;;;;;10.90;3.72;;;;;;;;;;4832139;29;20070;-66
2021/12/13 13:45:01;;;;;;;7.43;3.30;;;;;;;;;;4821666;29;20062;-66
2021/12/13 13:47:53;;;;;;;7.55;3.28;;;;;;;;;;4815950;29;20065;-65
2021/12/13 13:50:30;;;;;;;7.22;3.90;;;;;;;;;;4840901;29;20189;-66
2021/12/13 13:53:03;;;;;;;5.70;3.13;;;;;;;;;;4841741;29;20073;-67
2021/12/13 13:55:41;;;;;;;8.70;3.45;;;;;;;;;;4814673;29;20558;-66
2021/12/13 13:58:20;;;;;;;5.95;3.25;;;;;;;;;;4822809;29;20055;-63
2021/12/13 14:01:00;;;;;;;7.60;3.67;;;;;;;;;;4848935;29;20446;-64
2021/12/13 14:03:40;;;;;;;6.13;3.45;;;;;;;;;;4850136;29;20070;-65
2021/12/13 14:06:13;;;;;;;11.05;3.65;;;;;;;;;;4856384;29;20057;-66
2021/12/13 14:08:55;;;;;;;12.48;3.58;;;;;;;;;;4840841;29;20058;-78
2021/12/13 14:11:27;;;;;;;9.05;3.38;;;;;;;;;;4877980;29;20068;-66
2021/12/13 14:14:03;;;;;;;8.10;3.35;;;;;;;;;;4878004;29;20060;-65
2021/12/13 14:16:33;;;;;;;7.20;2.90;;;;;;;;;;4901722;29;20176;-65
2021/12/13 14:19:04;;;;;;;5.47;3.15;;;;;;;;;;4934556;29;20062;-65
2021/12/13 14:21:42;;;;;;;9.52;3.10;;;;;;;;;;4934400;29;20063;-64
2021/12/13 14:24:14;;;;;;;9.35;3.17;;;;;;;;;;4936443;29;20440;-64
2021/12/13 14:26:45;;;;;;;7.07;3.30;;;;;;;;;;4972610;28;20194;-63
2021/12/13 14:29:15;;;;;;;7.47;3.92;;;;;;;;;;5014478;28;20401;-66
2021/12/13 14:31:48;;;;;;;10.50;3.25;;;;;;;;;;5031619;28;20464;-63
2021/12/13 14:34:21;;;;;;;16.67;3.90;;;;;;;;;;5031011;28;20049;-68
2021/12/13 14:36:57;;;;;;;6.05;3.33;;;;;;;;;;5031753;28;20060;-64
2021/12/13 14:39:45;;;;;;;12.82;4.13;;;;;;;;;;4982205;28;20088;-64
2021/12/13 14:42:25;;;;;;;8.80;3.30;;;;;;;;;;5031519;28;20049;-63
2021/12/13 14:44:58;;;;;;;11.52;4.05;;;;;;;;;;4991605;28;20053;-63
2021/12/13 14:47:41;;;;;;;10.57;3.70;;;;;;;;;;4959592;28;20076;-65
2021/12/13 14:50:25;;;;;;;13.18;6.03;;;;;;;;;;5030742;28;20054;-64
2021/12/13 14:52:59;;;;;;;6.55;3.20;;;;;;;;;;4991580;28;20062;-63
2021/12/13 14:55:41;;;;;;;14.65;5.28;;;;;;;;;;4992124;28;20403;-65
2021/12/13 14:58:17;;;;;;;7.88;5.40;;;;;;;;;;4991999;28;20402;-64
2021/12/13 15:00:59;;;;;;;10.00;3.03;;;;;;;;;;4992341;28;20046;-64
2021/12/13 15:03:34;;;;;;;7.90;2.95;;;;;;;;;;4991896;28;20059;-64
2021/12/13 15:06:10;;;;;;;8.40;4.00;;;;;;;;;;4991473;28;20054;-63
2021/12/13 15:08:45;;;;;;;10.20;3.50;;;;;;;;;;4975184;28;20061;-64
2021/12/13 15:11:29;;;;;;;6.22;3.53;;;;;;;;;;4974726;28;20046;-64
2021/12/13 15:14:05;;;;;;;7.85;2.95;;;;;;;;;;4959360;28;20092;-63
2021/12/13 15:16:38;;;;;;;;;;;;;;;;;;4991980;28;20058;-64
2021/12/13 15:19:16;;;;;;;11.05;3.10;;;;;;;;;;4991315;28;20386;-63
2021/12/13 15:21:49;;;;;;;;;;;;;;;;;;4959359;28;20099;-66
2021/12/13 15:24:20;;;;;;;6.88;3.35;;;;;;;;;;4991276;28;19922;-64
2021/12/13 15:26:59;;;;;;;5.85;2.55;;;;;;;;;;4991063;28;20414;-65
2021/12/13 15:29:32;;;;;;;7.70;3.15;;;;;;;;;;4994557;28;20056;-67
2021/12/13 15:32:24;;;;;;;6.82;3.55;;;;;;;;;;5030363;28;20417;-63
2021/12/13 15:34:58;;;;;;;7.88;3.08;;;;;;;;;;5030101;28;20054;-64
2021/12/13 15:37:35;;;;;;;5.57;2.72;;;;;;;;;;4971197;28;20047;-65
2021/12/13 15:40:17;;;;;;;7.18;2.60;;;;;;;;;;4948358;28;20483;-64
2021/12/13 15:43:11;;;;;;;8.98;3.20;;;;;;;;;;4952149;28;20524;-64
2021/12/13 15:45:51;;;;;;;11.40;3.05;;;;;;;;;;4951820;28;20058;-63
2021/12/13 15:51:50;;;;;;;4.72;2.63;;;;;;;;;;4932738;29;20055;-64
2021/12/13 15:54:46;;;;;;;7.97;2.90;;;;;;;;;;4913735;29;20066;-64
2021/12/13 15:57:24;;;;;;;5.05;2.30;;;;;;;;;;4882508;29;20068;-64
2021/12/13 15:59:58;;;;;;;6.32;2.92;;;;;;;;;;4913607;29;20067;-64
2021/12/13 16:02:34;;;;;;;8.55;2.45;;;;;;;;;;4913822;29;20059;-65
2021/12/13 16:05:09;;;;;;;7.15;2.92;;;;;;;;;;4897907;29;20103;-69